Time;durP1;ratioP1;P1;durP2;ratioP2;P2;SDS_P1;SDS_P2;PMS_P1;PMS_P2;Temp;Humidity;BMP_temperature;BMP_pressure;BME280_temperature;BME280_humidity;BME280_pressure;Samples;Min_cycle;Max_cycle;Signal;HPM_P1;HPM_P2
2022/05/05 00:03:05;;;;;;;2.47;0.77;;;;;;;19.85;34.16;101902.81;16144369;19;128942;-50
2022/05/05 00:08:27;;;;;;;1.10;0.60;;;;;;;19.85;33.95;101902.81;16142205;19;132365;-48
2022/05/05 00:19:31;;;;;;;0.70;0.60;;;;;;;19.82;34.14;101903.25;16145101;19;132080;-47
2022/05/05 00:24:52;;;;;;;1.75;0.85;;;;;;;19.81;33.80;101907.16;16143413;19;129435;-53
2022/05/05 00:30:14;;;;;;;0.77;0.60;;;;;;;19.80;33.96;101902.66;16144949;19;129745;-53
2022/05/05 00:35:36;;;;;;;1.30;0.80;;;;;;;19.80;33.70;101894.34;16140172;19;129045;-50
2022/05/05 00:40:58;;;;;;;1.55;0.85;;;;;;;19.77;34.16;101903.13;16143121;19;129249;-49
2022/05/05 00:46:20;;;;;;;1.42;0.68;;;;;;;19.77;33.75;101897.56;16142534;19;129457;-53
2022/05/05 00:51:42;;;;;;;0.80;0.60;;;;;;;19.77;33.72;101894.78;16138297;19;130340;-48
2022/05/05 00:57:05;;;;;;;0.65;0.52;;;;;;;19.75;33.87;101902.50;16136988;19;129078;-51
2022/05/05 01:02:26;;;;;;;1.20;0.60;;;;;;;19.75;33.91;101903.38;16135489;19;129245;-53
2022/05/05 01:07:48;;;;;;;0.98;0.60;;;;;;;19.74;34.00;101903.56;16140534;19;130718;-49
2022/05/05 01:13:10;;;;;;;1.15;0.60;;;;;;;19.71;34.11;101906.81;16135408;19;130314;-54
2022/05/05 01:18:32;;;;;;;0.85;0.68;;;;;;;19.72;33.97;101908.50;16127828;19;129728;-51
2022/05/05 01:23:53;;;;;;;1.33;0.70;;;;;;;19.69;34.06;101904.28;16134692;19;129955;-49
2022/05/05 01:29:16;;;;;;;1.73;0.70;;;;;;;19.68;33.88;101897.88;16133793;19;129222;-50
2022/05/05 01:34:37;;;;;;;1.25;0.68;;;;;;;19.67;34.15;101904.50;16133252;19;129361;-47
2022/05/05 01:39:59;;;;;;;1.30;0.88;;;;;;;19.66;34.06;101905.59;16132588;19;128957;-51
2022/05/05 01:45:21;;;;;;;2.53;0.82;;;;;;;19.67;33.73;101903.66;16133999;19;129520;-48
2022/05/05 01:50:44;;;;;;;0.68;0.60;;;;;;;19.64;33.85;101896.63;16133776;19;129353;-53
2022/05/05 01:56:08;;;;;;;1.05;0.60;;;;;;;19.64;34.00;101901.31;16130366;19;130117;-51
2022/05/05 02:01:30;;;;;;;0.80;0.65;;;;;;;19.62;34.21;101897.94;16131656;19;129874;-52
2022/05/05 02:06:51;;;;;;;0.65;0.55;;;;;;;19.60;33.76;101912.03;16134081;19;132633;-52
2022/05/05 02:12:13;;;;;;;0.50;0.50;;;;;;;19.60;33.99;101906.50;15982094;19;2919486;-49
2022/05/05 02:17:38;;;;;;;0.47;0.43;;;;;;;19.60;34.08;101906.50;16133592;19;129308;-52
2022/05/05 02:23:00;;;;;;;0.73;0.65;;;;;;;19.59;33.76;101902.00;16134835;19;129978;-52
2022/05/05 02:28:22;;;;;;;1.08;0.80;;;;;;;19.57;34.26;101901.38;16136382;19;129247;-50
2022/05/05 02:33:44;;;;;;;0.73;0.47;;;;;;;19.55;34.10;101902.69;16136109;19;129676;-49
2022/05/05 02:39:06;;;;;;;0.90;0.63;;;;;;;19.53;34.28;101900.16;16129841;19;129269;-52
2022/05/05 02:44:31;;;;;;;0.70;0.60;;;;;;;19.52;33.98;101899.31;16135058;19;130208;-51
2022/05/05 02:49:52;;;;;;;1.55;0.70;;;;;;;19.51;34.20;101903.16;16132752;19;129958;-54
2022/05/05 02:55:15;;;;;;;0.95;0.60;;;;;;;19.50;33.87;101895.94;16128358;19;129382;-51
2022/05/05 03:00:36;;;;;;;0.98;0.70;;;;;;;19.51;34.17;101902.31;16134126;19;129319;-49
2022/05/05 03:05:58;;;;;;;1.30;1.00;;;;;;;19.50;34.16;101897.84;16126725;19;129346;-48
2022/05/05 03:11:20;;;;;;;1.35;0.80;;;;;;;19.50;34.35;101906.16;16135259;19;129461;-49
2022/05/05 03:16:41;;;;;;;2.20;1.00;;;;;;;19.49;34.15;101910.03;16143297;19;130375;-50
2022/05/05 03:22:04;;;;;;;1.08;0.80;;;;;;;19.49;33.93;101910.03;16150891;19;129234;-49
2022/05/05 03:27:25;;;;;;;1.92;1.02;;;;;;;19.48;34.28;101908.31;16151151;19;129241;-49
2022/05/05 03:32:47;;;;;;;0.80;0.70;;;;;;;19.46;34.35;101908.56;16148707;19;130027;-50
2022/05/05 03:38:09;;;;;;;2.15;0.80;;;;;;;19.47;33.86;101907.47;16143697;19;130116;-53
2022/05/05 03:43:32;;;;;;;1.63;0.80;;;;;;;19.47;33.97;101912.16;16148368;19;129419;-49
2022/05/05 03:48:59;;;;;;;2.85;1.10;;;;;;;19.46;34.27;101918.78;16144279;19;130076;-54
2022/05/05 03:54:23;;;;;;;1.42;0.82;;;;;;;19.44;33.98;101913.47;16145045;19;130510;-48
2022/05/05 03:59:45;;;;;;;2.13;0.80;;;;;;;19.44;33.97;101923.75;16141882;19;129734;-48
2022/05/05 04:05:07;;;;;;;1.15;1.00;;;;;;;19.43;34.22;101916.50;16144431;19;129815;-48
2022/05/05 04:10:29;;;;;;;1.70;1.10;;;;;;;19.43;34.34;101927.59;16145158;19;129429;-47
2022/05/05 04:15:52;;;;;;;1.85;0.80;;;;;;;19.42;34.01;101925.91;16141688;19;129260;-46
2022/05/05 04:21:14;;;;;;;0.60;0.57;;;;;;;19.42;34.39;101934.22;16146693;19;129256;-50
2022/05/05 04:26:36;;;;;;;1.67;0.82;;;;;;;19.40;34.39;101934.44;16143649;19;129305;-49
2022/05/05 04:31:57;;;;;;;1.77;0.77;;;;;;;19.38;34.31;101936.59;16145475;19;129878;-47
2022/05/05 04:37:20;;;;;;;0.63;0.45;;;;;;;19.38;34.12;101945.78;16142895;19;130157;-50
2022/05/05 04:42:42;;;;;;;2.85;0.80;;;;;;;19.38;34.38;101943.00;16144004;19;129220;-46
2022/05/05 04:48:04;;;;;;;1.65;0.80;;;;;;;19.36;34.08;101945.13;16140578;19;129050;-49
2022/05/05 04:53:26;;;;;;;1.55;1.00;;;;;;;19.36;33.96;101950.69;16141889;19;128746;-53
2022/05/05 04:58:47;;;;;;;1.45;1.00;;;;;;;19.36;34.34;101952.63;16138741;19;130127;-49
2022/05/05 05:04:09;;;;;;;2.15;1.02;;;;;;;19.35;34.36;101957.31;16142028;19;129700;-52
2022/05/05 05:09:31;;;;;;;0.90;0.70;;;;;;;19.34;33.99;101952.84;16143326;19;129678;-49
2022/05/05 05:14:53;;;;;;;1.70;1.00;;;;;;;19.37;34.22;101962.66;16138684;19;130670;-46
2022/05/05 05:20:15;;;;;;;4.60;0.70;;;;;;;19.33;34.00;101956.69;16141254;19;129176;-50
2022/05/05 05:25:37;;;;;;;4.70;1.20;;;;;;;19.35;34.17;101965.63;16142598;19;129349;-51
2022/05/05 05:30:59;;;;;;;1.98;1.00;;;;;;;19.39;34.18;101971.56;16140303;19;129429;-50
2022/05/05 05:36:21;;;;;;;5.13;1.20;;;;;;;19.38;34.12;101970.75;16139385;19;129393;-49
2022/05/05 05:41:43;;;;;;;2.20;1.20;;;;;;;19.39;34.26;101977.13;16138259;19;129383;-48
2022/05/05 05:47:07;;;;;;;1.15;1.00;;;;;;;19.37;34.19;101980.13;16140003;19;129933;-46
2022/05/05 05:52:29;;;;;;;5.18;0.90;;;;;;;19.37;34.53;101987.63;16140663;19;129177;-52
2022/05/05 05:57:51;;;;;;;4.40;1.70;;;;;;;19.41;34.88;101990.78;16136078;19;129006;-48
2022/05/05 06:08:53;;;;;;;2.83;1.30;;;;;;;19.47;35.21;101995.44;16139208;19;128873;-51
2022/05/05 06:14:15;;;;;;;3.10;1.45;;;;;;;19.49;35.32;102009.94;16135602;19;129471;-53
2022/05/05 06:19:36;;;;;;;5.40;1.60;;;;;;;19.50;35.21;102008.84;16134119;19;129478;-50
2022/05/05 06:24:58;;;;;;;6.07;1.33;;;;;;;19.50;35.45;102003.31;16139298;19;129327;-49
2022/05/05 06:30:20;;;;;;;6.38;1.50;;;;;;;19.51;35.45;102007.78;16137632;19;129596;-50
2022/05/05 06:35:42;;;;;;;3.47;1.58;;;;;;;19.50;35.27;102019.97;16137347;19;129337;-54
2022/05/05 06:41:03;;;;;;;3.33;1.40;;;;;;;19.50;34.90;102019.97;16136533;19;129066;-52
2022/05/05 06:46:25;;;;;;;3.47;1.35;;;;;;;19.50;35.22;102025.50;16140889;19;129786;-49
2022/05/05 06:51:51;;;;;;;3.25;1.50;;;;;;;19.49;35.24;102027.44;16150037;19;129089;-52
2022/05/05 06:57:14;;;;;;;3.25;1.30;;;;;;;19.49;34.76;102026.59;16149693;19;129511;-50
2022/05/05 07:02:36;;;;;;;2.80;1.55;;;;;;;19.49;35.10;102035.78;16151187;19;129014;-50
2022/05/05 07:07:58;;;;;;;3.13;1.70;;;;;;;19.50;35.29;102036.63;16151302;19;129391;-51
2022/05/05 07:13:24;;;;;;;5.78;1.75;;;;;;;19.51;35.43;102052.19;16149135;19;129031;-50
2022/05/05 07:18:46;;;;;;;2.45;1.52;;;;;;;19.50;35.27;102054.13;16147127;19;129171;-54
2022/05/05 07:24:07;;;;;;;3.72;1.83;;;;;;;19.51;34.97;102058.59;16150209;19;129430;-51
2022/05/05 07:29:30;;;;;;;5.55;1.88;;;;;;;19.53;35.37;102061.16;16148114;19;129578;-53
2022/05/05 07:34:52;;;;;;;2.22;1.45;;;;;;;19.53;35.13;102061.97;16145640;19;129508;-52
2022/05/05 07:40:14;;;;;;;4.43;1.98;;;;;;;19.56;34.94;102076.50;16144938;19;129222;-48
2022/05/05 07:45:36;;;;;;;6.55;2.10;;;;;;;19.58;35.36;102069.63;16149590;19;130221;-51
2022/05/05 07:50:58;;;;;;;2.88;1.80;;;;;;;19.61;35.37;102073.91;16148339;19;130240;-54
2022/05/05 07:56:20;;;;;;;2.53;1.70;;;;;;;19.61;35.00;102080.28;16146529;19;129150;-50
2022/05/05 08:01:42;;;;;;;3.75;2.50;;;;;;;19.64;34.97;102090.09;16148555;19;129583;-52
2022/05/05 08:07:04;;;;;;;3.72;2.25;;;;;;;19.66;34.96;102083.25;16147781;19;129315;-51
2022/05/05 08:12:25;;;;;;;4.53;2.53;;;;;;;19.69;35.17;102090.28;16145852;19;130042;-51
2022/05/05 08:17:48;;;;;;;3.67;2.10;;;;;;;19.76;34.84;102098.56;16143650;19;129129;-49
2022/05/05 08:23:10;;;;;;;4.07;1.98;;;;;;;19.80;35.25;102095.09;16147065;19;129363;-51
2022/05/05 08:28:33;;;;;;;4.63;1.90;;;;;;;19.84;35.06;102106.59;16145979;19;129333;-52
2022/05/05 08:33:55;;;;;;;2.85;1.92;;;;;;;19.89;35.03;102101.22;16145751;19;128935;-52
2022/05/05 08:39:17;;;;;;;3.85;2.00;;;;;;;19.92;34.79;102097.16;16140342;19;129135;-47
2022/05/05 08:44:39;;;;;;;4.55;2.50;;;;;;;19.95;34.78;102103.09;16145513;19;129381;-49
2022/05/05 08:50:01;;;;;;;2.80;2.00;;;;;;;19.97;34.88;102103.72;16139674;19;130495;-47
2022/05/05 08:55:24;;;;;;;2.83;2.13;;;;;;;20.02;35.10;102113.34;16142521;19;129080;-51
2022/05/05 09:00:45;;;;;;;5.10;2.38;;;;;;;20.06;34.71;102115.44;16138504;19;129258;-53
2022/05/05 09:06:07;;;;;;;2.45;2.08;;;;;;;20.12;34.79;102114.50;16145290;19;130253;-53
2022/05/05 09:11:29;;;;;;;3.17;2.40;;;;;;;20.18;34.60;102112.78;16142659;19;129029;-53
2022/05/05 09:16:51;;;;;;;5.03;2.92;;;;;;;20.22;34.99;102116.78;16140804;19;131846;-53
2022/05/05 09:22:16;;;;;;;3.60;2.78;;;;;;;20.27;34.76;102116.94;16144195;19;129972;-49
2022/05/05 09:27:37;;;;;;;2.87;2.20;;;;;;;20.27;34.81;102114.19;16139846;19;129149;-49
2022/05/05 09:32:59;;;;;;;3.92;2.85;;;;;;;20.28;34.55;102123.34;16144583;19;129356;-48
2022/05/05 09:38:21;;;;;;;4.05;2.83;;;;;;;20.24;34.69;102116.56;16138705;19;129092;-50
2022/05/05 09:43:43;;;;;;;2.85;2.53;;;;;;;20.21;35.12;102123.41;16143225;19;129489;-49
2022/05/05 09:49:18;;;;;;;2.88;2.38;;;;;;;20.19;35.14;102128.34;16140678;19;129112;-54
2022/05/05 10:05:53;;;;;;;3.67;2.95;;;;;;;20.06;34.94;102147.94;16137291;19;129101;-52
2022/05/05 10:11:16;;;;;;;3.38;2.28;;;;;;;20.03;35.23;102145.59;16133466;19;129055;-53
2022/05/05 10:16:40;;;;;;;2.85;2.17;;;;;;;20.01;35.22;102144.97;16133693;19;128930;-52
2022/05/05 10:22:19;;;;;;;3.35;2.50;;;;;;;19.99;35.22;102140.47;16143879;19;129282;-53
2022/05/05 10:27:43;;;;;;;3.47;2.35;;;;;;;19.97;35.38;102144.53;16153575;19;128884;-53
2022/05/05 10:33:06;;;;;;;2.70;2.40;;;;;;;19.94;35.08;102148.59;16153950;19;128831;-50
2022/05/05 10:38:40;;;;;;;2.58;2.10;;;;;;;19.96;35.35;102149.22;16151400;19;129314;-50
2022/05/05 10:44:17;;;;;;;2.97;2.30;;;;;;;19.96;35.13;102146.44;16152137;19;129927;-52
2022/05/05 10:49:39;;;;;;;3.60;2.35;;;;;;;19.96;35.07;102152.00;16153502;19;129248;-48
2022/05/05 10:55:26;;;;;;;3.05;2.45;;;;;;;19.98;35.01;102158.19;16153713;19;131242;-50
2022/05/05 11:01:09;;;;;;;2.40;2.10;;;;;;;19.98;34.97;102162.91;16147318;19;130045;-52
2022/05/05 11:06:32;;;;;;;4.75;2.47;;;;;;;19.99;35.17;102159.94;16153281;19;129419;-52
2022/05/05 11:12:34;;;;;;;2.88;1.85;;;;;;;20.01;35.19;102156.06;16145619;19;128856;-49
2022/05/05 11:23:48;;;;;;;2.35;1.92;;;;;;;20.04;35.03;102150.09;16141477;19;130237;-52
2022/05/05 11:29:16;;;;;;;3.13;2.50;;;;;;;20.06;35.15;102154.31;16140921;19;129299;-51
2022/05/05 11:34:40;;;;;;;2.58;2.38;;;;;;;20.06;34.96;102153.50;16139363;19;129220;-53
2022/05/05 11:40:02;;;;;;;4.57;2.55;;;;;;;20.10;34.72;102149.16;16135736;19;129581;-51
2022/05/05 11:45:24;;;;;;;3.13;2.78;;;;;;;20.10;35.15;102132.50;16139697;19;129196;-52
2022/05/05 11:50:46;;;;;;;2.67;2.40;;;;;;;20.11;34.92;102137.84;16144127;19;129359;-50
2022/05/05 11:56:12;;;;;;;3.72;2.38;;;;;;;20.14;35.10;102140.13;16145769;19;131056;-51
2022/05/05 12:01:38;;;;;;;3.75;2.38;;;;;;;20.16;35.01;102130.72;16142927;19;129071;-49
2022/05/05 12:07:01;;;;;;;4.43;2.20;;;;;;;20.18;34.72;102131.34;16147402;19;130607;-49
2022/05/05 12:12:27;;;;;;;2.38;1.98;;;;;;;20.20;35.13;102126.44;16146328;19;129255;-48
2022/05/05 12:17:52;;;;;;;2.85;2.05;;;;;;;20.20;35.07;102127.25;16147141;19;129801;-49
2022/05/05 12:23:14;;;;;;;2.88;2.30;;;;;;;20.21;34.75;102123.41;16145941;19;130658;-51
2022/05/05 12:28:50;;;;;;;3.25;2.47;;;;;;;20.22;35.18;102119.56;16137512;19;129263;-52
2022/05/05 12:34:30;;;;;;;2.78;2.35;;;;;;;20.22;35.11;102119.56;16138717;19;129841;-48
2022/05/05 12:40:01;;;;;;;3.10;2.50;;;;;;;20.25;34.70;102127.44;16143307;19;129003;-50
2022/05/05 12:45:29;;;;;;;3.05;2.40;;;;;;;20.26;34.74;102120.81;16141291;19;130920;-54
2022/05/05 12:50:52;;;;;;;3.03;2.45;;;;;;;20.26;34.67;102128.28;16142118;19;128888;-53
2022/05/05 13:01:56;;;;;;;3.20;2.55;;;;;;;20.21;35.00;102128.97;16138670;19;131908;-52
2022/05/05 13:07:19;;;;;;;4.22;2.85;;;;;;;20.20;34.77;102137.53;16141864;19;128910;-52
2022/05/05 13:12:40;;;;;;;5.20;4.07;;;;;;;20.17;34.87;102135.22;16140524;19;129754;-48
2022/05/05 13:18:03;;;;;;;4.85;3.83;;;;;;;20.14;35.04;102130.97;16141809;19;129608;-53
2022/05/05 13:23:25;;;;;;;5.15;4.45;;;;;;;20.12;34.90;102138.69;16142169;19;128856;-53
2022/05/05 13:28:47;;;;;;;5.20;4.40;;;;;;;20.11;34.76;102145.31;16139926;19;129347;-48
2022/05/05 13:34:08;;;;;;;6.15;4.65;;;;;;;20.09;34.76;102141.91;16138812;19;129513;-49
2022/05/05 13:39:30;;;;;;;5.45;4.30;;;;;;;20.07;35.13;102132.94;16136697;19;130619;-49
2022/05/05 13:44:52;;;;;;;6.85;4.43;;;;;;;20.07;35.25;102149.59;16143722;19;130028;-54
2022/05/05 13:50:14;;;;;;;5.32;4.60;;;;;;;20.07;34.91;102146.81;16140310;19;128968;-48
2022/05/05 13:55:36;;;;;;;4.45;3.85;;;;;;;20.07;35.18;102149.59;16134811;19;129606;-49
2022/05/05 14:00:57;;;;;;;6.57;4.72;;;;;;;20.07;34.81;102149.59;16131318;19;131128;-49
2022/05/05 14:06:19;;;;;;;5.63;4.03;;;;;;;20.07;35.14;102144.91;16137637;19;129220;-50
2022/05/05 14:17:22;;;;;;;4.95;4.18;;;;;;;20.11;35.07;102135.06;16137608;19;129723;-49
2022/05/05 14:22:44;;;;;;;5.20;4.70;;;;;;;20.12;34.92;102144.22;16137970;19;129527;-53
2022/05/05 14:28:06;;;;;;;6.15;4.80;;;;;;;20.11;34.89;102146.19;16134424;19;129875;-52
2022/05/05 14:33:28;;;;;;;5.60;4.47;;;;;;;20.10;34.74;102155.59;16129410;19;130278;-51
2022/05/05 14:38:50;;;;;;;8.05;5.00;;;;;;;20.11;34.93;102157.28;16131044;19;130260;-49
2022/05/05 14:44:12;;;;;;;6.32;4.47;;;;;;;20.11;34.72;102146.19;16136606;19;129459;-52
2022/05/05 14:49:34;;;;;;;5.22;4.45;;;;;;;20.12;34.90;102152.56;16137023;19;128997;-47
2022/05/05 14:54:55;;;;;;;4.68;4.00;;;;;;;20.12;35.09;102138.69;16133906;19;129321;-52
2022/05/05 15:00:18;;;;;;;7.60;4.15;;;;;;;20.12;35.06;102142.28;16131904;19;129990;-50
2022/05/05 15:05:40;;;;;;;5.38;4.05;;;;;;;20.14;35.06;102145.69;16133456;19;130089;-50
2022/05/05 15:11:02;;;;;;;5.75;4.18;;;;;;;20.14;34.98;102155.97;16142254;19;129432;-50
2022/05/05 15:16:24;;;;;;;4.35;3.22;;;;;;;20.15;35.19;102152.13;16145247;19;129275;-49
2022/05/05 15:21:48;;;;;;;4.25;3.40;;;;;;;20.15;35.24;102152.13;16144849;19;129482;-48
2022/05/05 15:27:10;;;;;;;6.47;3.58;;;;;;;20.16;35.09;102153.81;16148556;19;129306;-52
2022/05/05 15:32:32;;;;;;;3.55;3.25;;;;;;;20.15;35.19;102157.69;16149222;19;128895;-54
2022/05/05 15:37:54;;;;;;;3.28;2.90;;;;;;;20.16;35.30;102150.19;16147783;19;129887;-49
2022/05/05 15:43:15;;;;;;;4.45;3.28;;;;;;;20.17;35.13;102163.00;16146459;19;129927;-48
2022/05/05 15:48:37;;;;;;;5.40;3.85;;;;;;;20.16;35.04;102152.97;16148365;19;129668;-51
2022/05/05 15:53:59;;;;;;;4.20;3.28;;;;;;;20.13;35.23;102162.59;16146963;19;129474;-51
2022/05/05 15:59:21;;;;;;;5.35;3.47;;;;;;;20.11;35.54;102167.53;16142543;19;129824;-49
2022/05/05 16:04:46;;;;;;;3.78;3.35;;;;;;;20.08;35.64;102170.75;16143944;19;129344;-53
2022/05/05 16:10:08;;;;;;;5.07;2.95;;;;;;;20.06;35.30;102182.09;16141996;19;129147;-52
2022/05/05 16:15:30;;;;;;;6.53;3.30;;;;;;;20.03;35.53;102181.72;16141574;19;129383;-53
2022/05/05 16:20:52;;;;;;;5.10;2.90;;;;;;;20.03;35.90;102188.09;16137235;19;129974;-50
2022/05/05 16:31:54;;;;;;;27.98;11.48;;;;;;;20.02;36.41;102188.34;16145969;19;129572;-50
2022/05/05 16:37:17;;;;;;;36.65;17.63;;;;;;;20.02;36.64;102191.13;16138765;19;129023;-51
2022/05/05 16:42:39;;;;;;;51.58;21.58;;;;;;;20.06;37.02;102197.94;16138615;19;130001;-53
2022/05/05 16:48:01;;;;;;;57.53;20.85;;;;;;;20.07;37.63;102206.03;16144090;19;129470;-53
2022/05/05 16:53:23;;;;;;;52.65;19.25;;;;;;;20.07;37.75;102200.47;16137322;19;130627;-51
2022/05/05 16:58:45;;;;;;;41.25;18.45;;;;;;;20.08;37.61;102206.88;16140489;19;130726;-47
2022/05/05 17:04:07;;;;;;;40.90;15.95;;;;;;;20.04;37.72;102209.25;16142683;19;129437;-54
2022/05/05 17:09:29;;;;;;;40.25;14.65;;;;;;;20.01;37.44;102206.06;16138823;19;129231;-50
2022/05/05 17:14:51;;;;;;;36.22;14.25;;;;;;;19.98;37.52;102208.19;16137834;19;129600;-53
2022/05/05 17:20:13;;;;;;;29.10;13.20;;;;;;;19.96;37.81;102210.34;16139901;19;128981;-49
2022/05/05 17:25:35;;;;;;;30.75;13.38;;;;;;;19.97;37.98;102212.03;16140680;19;129543;-52
2022/05/05 17:30:57;;;;;;;24.50;10.93;;;;;;;19.96;37.59;102209.50;16140018;19;129488;-50
2022/05/05 17:36:19;;;;;;;28.30;11.60;;;;;;;19.95;37.60;102214.19;16138614;19;130395;-51
2022/05/05 17:41:42;;;;;;;22.90;10.15;;;;;;;19.98;38.03;102219.31;16131647;19;129780;-48
2022/05/05 17:52:44;;;;;;;27.35;9.48;;;;;;;19.99;37.50;102226.59;16136490;19;129429;-52
2022/05/05 17:58:06;;;;;;;23.45;8.88;;;;;;;19.98;37.54;102230.41;16139599;19;132351;-49
2022/05/05 18:03:28;;;;;;;16.80;7.88;;;;;;;19.99;37.47;102243.25;16142420;19;129574;-49
2022/05/05 18:08:50;;;;;;;18.33;7.10;;;;;;;19.98;37.49;102235.97;16134664;19;129539;-48
2022/05/05 18:14:11;;;;;;;21.55;6.57;;;;;;;20.01;37.97;102250.53;16136200;19;129571;-57
2022/05/05 18:19:33;;;;;;;18.75;6.97;;;;;;;20.02;37.73;102241.13;16138346;19;129220;-47
2022/05/05 18:24:55;;;;;;;15.38;5.78;;;;;;;20.04;37.84;102255.63;16136332;19;129098;-52
2022/05/05 18:30:20;;;;;;;16.95;5.60;;;;;;;20.07;37.57;102263.50;16132840;19;129004;-50
2022/05/05 18:35:42;;;;;;;18.30;5.15;;;;;;;20.06;37.63;102275.72;16137350;19;130812;-50
2022/05/05 18:41:04;;;;;;;21.08;4.75;;;;;;;20.07;37.73;102277.38;16133351;19;129252;-50
2022/05/05 18:46:26;;;;;;;13.15;4.25;;;;;;;20.08;37.47;102279.09;16148654;19;129657;-51
2022/05/05 18:51:48;;;;;;;23.25;5.40;;;;;;;20.08;37.43;102284.66;16148777;19;128865;-53
2022/05/05 18:57:10;;;;;;;16.83;4.70;;;;;;;20.06;37.77;102292.38;16150109;19;130518;-50
2022/05/05 19:02:32;;;;;;;20.13;4.80;;;;;;;20.04;38.01;102297.31;16146089;19;130569;-50
2022/05/05 19:07:54;;;;;;;14.38;5.28;;;;;;;19.97;37.94;102298.16;16143058;19;130161;-53
2022/05/05 19:13:16;;;;;;;14.95;4.60;;;;;;;20.03;37.90;102298.38;16143095;19;129678;-52
2022/05/05 19:18:38;;;;;;;13.45;4.35;;;;;;;20.23;38.20;102309.38;16151601;19;129673;-45
2022/05/05 19:24:01;;;;;;;14.82;4.30;;;;;;;20.54;37.76;102316.00;16144160;19;132465;-46
2022/05/05 19:29:22;;;;;;;13.50;4.03;;;;;;;20.85;36.99;102320.69;16144454;19;129329;-50
2022/05/05 19:34:44;;;;;;;14.30;3.78;;;;;;;21.06;37.03;102324.13;16143982;19;129947;-52
2022/05/05 19:40:08;;;;;;;21.52;4.20;;;;;;;21.15;36.59;102330.25;16137856;19;129730;-52
2022/05/05 19:45:29;;;;;;;16.50;4.32;;;;;;;21.16;36.68;102341.16;16142296;19;129736;-52
2022/05/05 19:50:51;;;;;;;16.80;3.83;;;;;;;21.14;36.67;102348.88;16143210;19;129477;-51
2022/05/05 20:01:53;;;;;;;17.45;4.00;;;;;;;21.08;37.11;102360.91;16142235;19;130636;-47
2022/05/05 20:07:24;;;;;;;17.17;3.50;;;;;;;21.05;36.95;102372.50;16142907;19;129559;-55
2022/05/05 20:12:45;;;;;;;10.48;2.63;;;;;;;20.95;36.83;102369.38;16141713;19;129758;-57
2022/05/05 20:18:07;;;;;;;15.95;3.30;;;;;;;20.87;37.40;102371.38;16141820;19;129598;-57
2022/05/05 20:23:29;;;;;;;14.20;3.00;;;;;;;20.85;37.29;102381.03;16135870;19;129082;-58
2022/05/05 20:28:51;;;;;;;10.55;2.55;;;;;;;20.82;37.55;102385.09;16141238;19;129456;-57
2022/05/05 20:34:12;;;;;;;14.88;2.83;;;;;;;20.78;37.60;102383.00;16141202;19;129886;-55
2022/05/05 20:39:34;;;;;;;11.70;2.50;;;;;;;20.75;37.53;102385.16;16139479;19;129197;-54
2022/05/05 20:44:56;;;;;;;19.98;2.95;;;;;;;20.73;37.76;102392.00;16142907;19;129253;-53
2022/05/05 20:50:19;;;;;;;11.43;2.78;;;;;;;20.70;37.77;102398.00;16141698;19;128850;-53
2022/05/05 20:55:41;;;;;;;13.90;2.78;;;;;;;20.68;37.78;102400.16;16138747;19;128883;-51
2022/05/05 21:01:03;;;;;;;9.48;2.70;;;;;;;20.66;37.69;102407.88;16136137;19;129925;-50
2022/05/05 21:06:25;;;;;;;12.23;2.25;;;;;;;20.64;37.60;102410.03;16136353;19;129348;-52
2022/05/05 21:11:48;;;;;;;11.35;2.40;;;;;;;20.59;37.53;102407.94;16131725;19;129323;-52
2022/05/05 21:17:10;;;;;;;14.40;2.53;;;;;;;20.54;38.17;102403.03;16139156;19;129940;-54
2022/05/05 21:28:14;;;;;;;9.93;2.83;;;;;;;20.44;37.64;102411.84;16137036;19;128846;-51
2022/05/05 21:33:36;;;;;;;12.43;2.40;;;;;;;20.39;37.59;102414.44;16137259;19;129576;-53
2022/05/05 21:38:58;;;;;;;12.75;2.60;;;;;;;20.34;38.10;102411.50;16137404;19;128886;-55
2022/05/05 21:44:20;;;;;;;9.68;2.55;;;;;;;20.29;37.78;102420.50;16140724;19;129528;-50
2022/05/05 21:49:42;;;;;;;10.45;2.20;;;;;;;20.27;37.96;102425.41;16139214;19;129567;-53
2022/05/05 21:55:04;;;;;;;5.55;2.50;;;;;;;20.24;37.98;102420.31;16138697;19;128803;-52
2022/05/05 22:00:38;;;;;;;3.28;1.70;;;;;;;20.23;37.86;102429.69;16136817;19;128966;-53
2022/05/05 22:06:03;;;;;;;8.10;2.10;;;;;;;20.20;37.76;102423.75;16139053;19;129019;-52
2022/05/05 22:11:25;;;;;;;3.88;1.80;;;;;;;20.18;37.72;102435.09;16128558;19;129348;-54
2022/05/05 22:16:47;;;;;;;7.00;2.22;;;;;;;20.14;37.81;102437.44;16134809;19;129613;-53
2022/05/05 22:22:09;;;;;;;4.15;1.83;;;;;;;20.09;37.89;102439.16;16148117;19;129541;-54
2022/05/05 22:27:30;;;;;;;7.10;1.77;;;;;;;20.08;37.47;102440.22;16152047;19;129568;-52
2022/05/05 22:32:52;;;;;;;4.07;1.88;;;;;;;20.04;37.60;102445.38;16151946;19;129238;-52
2022/05/05 22:38:14;;;;;;;6.20;2.55;;;;;;;20.01;37.36;102439.41;16150477;19;129339;-56
2022/05/05 22:43:36;;;;;;;5.38;1.90;;;;;;;19.99;37.50;102450.72;16145634;19;129154;-55
2022/05/05 22:54:40;;;;;;;3.53;2.55;;;;;;;19.94;37.52;102443.03;16148470;19;130009;-51
2022/05/05 23:00:02;;;;;;;3.47;1.37;;;;;;;19.90;37.75;102443.69;16147672;19;129019;-54
2022/05/05 23:05:25;;;;;;;3.13;1.88;;;;;;;19.89;37.76;102444.75;16146097;19;129532;-54
2022/05/05 23:10:48;;;;;;;3.90;1.80;;;;;;;19.86;37.23;102454.38;16146333;19;130158;-54
2022/05/05 23:16:10;;;;;;;4.28;1.70;;;;;;;19.85;37.27;102458.22;16144021;19;129756;-50
2022/05/05 23:21:32;;;;;;;4.05;1.80;;;;;;;19.83;37.31;102452.91;16147192;19;130007;-55
2022/05/05 23:26:53;;;;;;;3.22;1.80;;;;;;;19.82;37.65;102465.06;16147858;19;130999;-56
2022/05/05 23:32:15;;;;;;;3.35;2.35;;;;;;;19.82;37.70;102464.22;16145558;19;129301;-52
2022/05/05 23:37:37;;;;;;;5.22;2.25;;;;;;;19.80;37.35;102467.22;16149654;19;129196;-51
2022/05/05 23:43:00;;;;;;;2.67;2.25;;;;;;;19.78;37.31;102465.72;16143104;19;130074;-51
2022/05/05 23:48:22;;;;;;;3.78;1.95;;;;;;;19.77;37.40;102469.56;16149997;19;129382;-52
2022/05/05 23:53:43;;;;;;;3.40;2.10;;;;;;;19.74;37.35;102468.09;16146366;19;129458;-50
2022/05/05 23:59:06;;;;;;;4.32;2.17;;;;;;;19.76;37.55;102471.47;16147675;19;129389;-48
